Main page
METAR-TAF:

METAR-TAF

Airports :

Norwich Airport

Norwich, England

latitude: 52-38N, longitude: 001-18E, elevation: 14 m

Current weather observation

The report was made 16 minutes ago, at 18:50 UTC
Wind 5 kt from the South/Southwest
Temperature 8°C
Humidity 87%
Pressure 1024 hPa
Visibility 10 km or more
Few clouds at a height of 2500 ft

METAR: EGSH 131850Z 20005KT 9999 FEW025 08/06 Q1024 NOSIG

Time: 19:06 (19:06 UTC)

Forecast

The report was made 2 hours and 0 minutes ago, at 17:06 UTC
Forecast valid from 13 at 18 UTC to 14 at 03 UTC
Wind 10 kt from the South/Southwest
Visibility 10 km or more
Few clouds at a height of 3000 ft

TAF: EGSH 131706Z 1318/1403 20010KT 9999 FEW030

Weather observations and forecasts of more than 4000 airports (METAR and TAF reports).

The available stations are represented by yellow and red dots on the map.

Hover mouse over dot to see the name of the station.

Then click to see weather observations and forecasts.

To change the map : click on the green buttons with a black cross to zoom in, on the green button with a dash to zoom out, or on the green arrows for adjacent maps.


METAR-TAF: